Time;durP1;ratioP1;P1;durP2;ratioP2;P2;SDS_P1;SDS_P2;PMS_P1;PMS_P2;Temp;Humidity;BMP_temperature;BMP_pressure;BME280_temperature;BME280_humidity;BME280_pressure;Samples;Min_cycle;Max_cycle;Signal;HPM_P1;HPM_P2
2023/02/19 00:01:40;;;;;;;6.13;4.03;;;;;;;8.97;99.02;100681.97;4978244;28;20223;-82
2023/02/19 00:04:09;;;;;;;5.97;4.03;;;;;;;8.96;99.79;100674.94;4979130;28;20208;-84
2023/02/19 00:06:36;;;;;;;9.20;4.23;;;;;;;8.95;99.31;100683.03;4981307;28;20360;-84
2023/02/19 00:09:04;;;;;;;6.37;4.43;;;;;;;8.94;99.47;100670.69;4976164;28;20238;-84
2023/02/19 00:11:33;;;;;;;6.97;3.87;;;;;;;8.93;99.92;100675.13;4977049;28;20208;-85
2023/02/19 00:14:01;;;;;;;6.00;4.47;;;;;;;8.92;99.79;100684.03;4982477;28;20640;-85
2023/02/19 00:16:29;;;;;;;7.10;4.73;;;;;;;8.91;100.00;100678.81;4986647;28;20228;-85
2023/02/19 00:18:57;;;;;;;7.37;5.10;;;;;;;8.91;100.00;100685.00;4984263;28;20215;-85
2023/02/19 00:21:25;;;;;;;7.33;4.67;;;;;;;8.91;100.00;100681.47;4983201;28;20722;-85
2023/02/19 00:23:52;;;;;;;7.07;4.77;;;;;;;8.90;100.00;100670.00;4984492;28;20694;-85
2023/02/19 00:26:21;;;;;;;6.23;4.73;;;;;;;8.92;100.00;100667.25;4986240;28;20569;-84
2023/02/19 00:28:49;;;;;;;6.60;4.10;;;;;;;8.91;100.00;100668.19;4993041;28;20210;-84
2023/02/19 00:31:17;;;;;;;6.40;4.30;;;;;;;8.92;100.00;100656.63;4980768;28;20223;-85
2023/02/19 00:33:44;;;;;;;7.83;4.67;;;;;;;8.90;100.00;100651.41;4984103;28;20231;-85
2023/02/19 00:36:11;;;;;;;7.77;4.67;;;;;;;8.88;100.00;100650.63;4986317;28;20563;-85
2023/02/19 00:38:39;;;;;;;7.10;4.60;;;;;;;8.91;100.00;100649.59;4990978;28;20207;-85
2023/02/19 00:41:18;;;;;;;7.43;5.03;;;;;;;8.89;100.00;100657.66;4983330;28;20212;-85
2023/02/19 00:43:48;;;;;;;8.73;5.77;;;;;;;8.88;100.00;100658.59;4975528;28;20204;-84
2023/02/19 00:46:14;;;;;;;8.57;5.40;;;;;;;8.88;100.00;100647.13;4986210;28;20239;-84
2023/02/19 00:48:41;;;;;;;13.00;6.57;;;;;;;8.90;100.00;100650.53;4982474;28;20215;-85
2023/02/19 00:51:07;;;;;;;9.90;7.10;;;;;;;8.91;100.00;100638.97;4982106;28;20219;-86
2023/02/19 00:53:34;;;;;;;12.17;7.23;;;;;;;8.91;100.00;100628.34;4989841;28;20676;-85
2023/02/19 00:56:00;;;;;;;10.00;7.23;;;;;;;8.92;100.00;100622.97;4991568;28;20232;-85
2023/02/19 00:58:27;;;;;;;12.50;7.43;;;;;;;8.93;100.00;100607.88;4986486;28;20668;-83
2023/02/19 01:00:55;;;;;;;12.13;7.50;;;;;;;8.94;100.00;100601.63;4984971;28;20219;-83
2023/02/19 01:03:22;;;;;;;13.33;8.07;;;;;;;8.97;100.00;100591.66;4979511;28;20223;-84
2023/02/19 01:05:48;;;;;;;12.50;7.87;;;;;;;8.94;100.00;100575.91;4990524;28;20219;-83
2023/02/19 01:08:15;;;;;;;14.30;8.60;;;;;;;8.95;100.00;100582.94;4989169;28;20253;-84
2023/02/19 01:10:41;;;;;;;13.93;8.47;;;;;;;8.95;100.00;100587.41;4980405;28;20200;-84
2023/02/19 01:13:08;;;;;;;13.20;8.23;;;;;;;8.94;100.00;100591.00;4990470;28;20226;-84
2023/02/19 01:15:35;;;;;;;13.53;7.97;;;;;;;8.94;100.00;100583.03;4987393;28;20226;-83
2023/02/19 01:18:03;;;;;;;15.67;9.23;;;;;;;8.93;100.00;100584.84;4984398;28;20204;-84
2023/02/19 01:20:30;;;;;;;12.77;7.93;;;;;;;8.95;100.00;100593.56;4988061;28;21394;-84
2023/02/19 01:22:56;;;;;;;13.87;7.97;;;;;;;8.92;100.00;100585.78;4989476;28;20214;-84
2023/02/19 01:25:23;;;;;;;16.50;8.50;;;;;;;8.93;100.00;100568.91;4986880;28;20231;-85
2023/02/19 01:27:49;;;;;;;10.70;6.77;;;;;;;8.95;100.00;100566.16;4988495;28;20234;-85
2023/02/19 01:30:16;;;;;;;12.97;7.07;;;;;;;8.95;100.00;100571.47;4985203;28;20211;-85
2023/02/19 01:32:42;;;;;;;12.63;6.73;;;;;;;8.95;100.00;100566.16;4994185;28;20212;-84
2023/02/19 01:35:10;;;;;;;10.30;5.93;;;;;;;8.94;100.00;100565.28;4991265;28;20223;-85
2023/02/19 01:37:37;;;;;;;10.17;6.53;;;;;;;8.93;100.00;100582.19;4992079;28;20211;-84
2023/02/19 01:40:03;;;;;;;11.17;6.90;;;;;;;8.94;100.00;100583.88;4989571;28;20204;-85
2023/02/19 01:42:30;;;;;;;11.90;6.80;;;;;;;8.94;100.00;100591.00;4990502;28;20208;-85
2023/02/19 01:45:24;;;;;;;13.20;7.13;;;;;;;8.98;100.00;100595.16;4989782;28;20227;-84
2023/02/19 01:48:01;;;;;;;9.50;6.10;;;;;;;8.98;100.00;100593.38;4986080;28;20216;-85
2023/02/19 01:50:37;;;;;;;8.90;6.53;;;;;;;8.98;100.00;100590.72;4993240;28;20214;-84
2023/02/19 01:53:08;;;;;;;9.43;5.97;;;;;;;8.99;100.00;100592.44;4993062;28;20195;-84
2023/02/19 01:55:35;;;;;;;12.07;6.97;;;;;;;9.01;100.00;100593.19;4993170;28;20235;-86
2023/02/19 01:58:03;;;;;;;11.67;6.83;;;;;;;9.00;100.00;100588.81;4992773;28;20215;-86
2023/02/19 02:00:31;;;;;;;12.33;7.80;;;;;;;9.00;100.00;100580.00;4993235;28;20215;-86
2023/02/19 02:02:59;;;;;;;11.40;7.17;;;;;;;9.00;100.00;100580.00;4992818;28;20226;-84
2023/02/19 02:05:42;;;;;;;11.20;7.50;;;;;;;8.99;100.00;100578.28;4994842;28;20712;-84
2023/02/19 02:10:54;;;;;;;10.47;7.00;;;;;;;8.97;100.00;100596.97;4973882;28;20203;-84
2023/02/19 02:13:21;;;;;;;13.03;7.80;;;;;;;8.97;100.00;100591.66;4974392;28;20586;-84
2023/02/19 02:15:54;;;;;;;13.70;8.87;;;;;;;8.95;100.00;100582.09;4974684;28;20224;-85
2023/02/19 02:18:36;;;;;;;12.57;8.00;;;;;;;8.95;100.00;100568.81;4974412;28;20196;-84
2023/02/19 02:21:33;;;;;;;9.90;6.53;;;;;;;8.92;100.00;100577.81;4973819;28;20238;-84
2023/02/19 02:24:12;;;;;;;9.97;6.17;;;;;;;8.89;100.00;100570.00;4973611;28;20235;-84
2023/02/19 02:26:56;;;;;;;7.90;5.63;;;;;;;8.86;100.00;100570.19;4973434;28;20274;-84
2023/02/19 02:30:06;;;;;;;6.00;4.00;;;;;;;8.81;100.00;100558.97;4973672;28;20207;-84
2023/02/19 02:32:39;;;;;;;4.63;3.50;;;;;;;8.78;100.00;100550.34;4973563;28;20236;-84
2023/02/19 02:35:09;;;;;;;5.70;3.50;;;;;;;8.76;100.00;100563.69;4973366;28;20228;-84
2023/02/19 02:37:40;;;;;;;5.17;3.87;;;;;;;8.72;100.00;100559.50;4973399;28;20196;-85
2023/02/19 02:40:08;;;;;;;5.17;3.97;;;;;;;8.70;100.00;100564.91;4973449;28;20303;-85
2023/02/19 02:42:38;;;;;;;6.60;4.43;;;;;;;8.69;100.00;100557.88;4973749;28;20684;-85
2023/02/19 02:45:37;;;;;;;6.03;4.87;;;;;;;8.68;100.00;100565.91;4972887;28;20240;-84
2023/02/19 02:48:20;;;;;;;7.23;5.20;;;;;;;8.68;100.00;100568.56;4972688;28;20240;-85
2023/02/19 02:50:52;;;;;;;6.83;4.87;;;;;;;8.68;100.00;100560.59;4972638;28;20192;-85
2023/02/19 02:56:09;;;;;;;6.73;4.50;;;;;;;8.69;100.00;100560.53;4972689;28;20231;-85
2023/02/19 02:58:36;;;;;;;7.00;4.30;;;;;;;8.71;100.00;100560.44;4972774;28;20204;-85
2023/02/19 03:03:57;;;;;;;5.17;3.87;;;;;;;8.73;100.00;100553.25;4990926;28;20202;-84
2023/02/19 03:06:28;;;;;;;6.27;4.63;;;;;;;8.74;100.00;100554.97;4992600;28;20235;-85
2023/02/19 03:08:59;;;;;;;4.80;3.43;;;;;;;8.74;100.00;100544.34;4991927;28;20219;-84
2023/02/19 03:19:55;;;;;;;6.50;3.87;;;;;;;8.79;100.00;100560.84;4991719;28;20206;-85
2023/02/19 03:22:25;;;;;;;6.10;3.83;;;;;;;8.80;100.00;100546.63;4991658;28;20196;-85
2023/02/19 03:27:42;;;;;;;4.37;3.17;;;;;;;8.82;100.00;100550.03;4980408;28;20289;-85
2023/02/19 03:30:12;;;;;;;5.90;4.27;;;;;;;8.81;100.00;100551.00;4991294;28;20203;-86
2023/02/19 03:32:46;;;;;;;5.30;3.53;;;;;;;8.81;100.00;100551.00;4983902;28;20220;-84
2023/02/19 03:35:16;;;;;;;6.17;4.03;;;;;;;8.84;100.00;100558.78;4991159;28;20230;-85
2023/02/19 03:37:47;;;;;;;5.00;3.93;;;;;;;8.84;100.00;100557.94;4990924;28;20204;-85
2023/02/19 03:40:14;;;;;;;4.67;3.17;;;;;;;8.84;100.00;100555.28;4991270;28;20192;-86
2023/02/19 03:42:50;;;;;;;3.90;3.10;;;;;;;8.82;100.00;100552.69;4983104;28;20293;-85
2023/02/19 03:45:34;;;;;;;3.60;2.83;;;;;;;8.83;100.00;100559.72;4990992;28;20235;-85
2023/02/19 03:48:17;;;;;;;3.43;2.73;;;;;;;8.83;100.00;100567.69;4990909;28;20727;-85
2023/02/19 03:50:49;;;;;;;4.73;3.20;;;;;;;8.83;100.00;100570.34;4991656;28;20695;-85
2023/02/19 03:53:26;;;;;;;4.13;3.20;;;;;;;8.82;100.00;100557.16;4991169;28;20576;-85
2023/02/19 03:56:05;;;;;;;3.97;2.87;;;;;;;8.84;100.00;100568.56;4984281;28;20219;-85
2023/02/19 03:58:39;;;;;;;4.60;2.80;;;;;;;8.85;100.00;100557.84;4990717;28;20195;-86
2023/02/19 04:01:10;;;;;;;4.00;2.67;;;;;;;8.86;100.00;100596.75;4990940;28;20577;-85
2023/02/19 04:03:43;;;;;;;1.20;0.83;;;;;;;8.83;100.00;100601.34;4983683;28;20211;-85
2023/02/19 04:06:13;;;;;;;1.33;0.67;;;;;;;8.67;100.00;100625.28;4983636;28;20235;-86
2023/02/19 04:08:43;;;;;;;1.27;0.73;;;;;;;8.49;99.11;100619.19;4990867;28;20235;-85
2023/02/19 04:11:11;;;;;;;0.70;0.60;;;;;;;8.30;97.94;100615.78;4991316;28;20233;-85
2023/02/19 04:13:44;;;;;;;0.50;0.50;;;;;;;8.15;98.02;100637.84;4990525;28;20208;-85
2023/02/19 04:16:15;;;;;;;0.60;0.60;;;;;;;8.02;98.29;100629.69;4979827;28;20250;-84
2023/02/19 04:18:46;;;;;;;1.43;0.50;;;;;;;7.91;97.88;100634.69;4990300;28;20210;-85
2023/02/19 04:21:14;;;;;;;0.33;0.30;;;;;;;7.84;98.68;100646.56;4990994;28;20678;-84
2023/02/19 04:23:44;;;;;;;0.40;0.30;;;;;;;7.74;98.44;100659.44;5001000;28;20211;-86
2023/02/19 04:26:13;;;;;;;0.40;0.40;;;;;;;7.69;98.83;100657.97;5003682;28;20231;-85
2023/02/19 04:28:39;;;;;;;0.80;0.60;;;;;;;7.63;98.19;100660.00;4990611;28;20247;-86
2023/02/19 04:31:06;;;;;;;0.70;0.60;;;;;;;7.58;97.91;100688.50;4990886;28;20302;-85
2023/02/19 04:33:32;;;;;;;0.40;0.40;;;;;;;7.51;99.18;100673.88;4991140;28;20230;-85
2023/02/19 04:36:00;;;;;;;0.77;0.53;;;;;;;7.48;98.82;100673.16;4991049;28;20250;-85
2023/02/19 04:38:27;;;;;;;0.40;0.40;;;;;;;7.42;99.30;100687.56;4991063;28;20211;-84
2023/02/19 04:40:53;;;;;;;0.70;0.50;;;;;;;7.36;99.21;100687.84;4990919;28;20211;-85
2023/02/19 04:43:20;;;;;;;0.67;0.40;;;;;;;7.30;98.55;100693.47;4990845;28;20676;-85
2023/02/19 04:45:46;;;;;;;0.70;0.50;;;;;;;7.26;99.45;100692.75;4990985;28;20231;-85
2023/02/19 04:48:13;;;;;;;0.30;0.30;;;;;;;7.20;99.53;100702.78;4990920;28;20227;-85
2023/02/19 04:50:40;;;;;;;1.13;0.57;;;;;;;7.15;99.19;100708.34;4982853;28;20212;-86
2023/02/19 04:53:08;;;;;;;0.30;0.30;;;;;;;7.11;99.63;100709.41;4990753;28;20211;-86
2023/02/19 04:55:37;;;;;;;0.50;0.40;;;;;;;7.09;100.00;100715.72;4990596;28;20223;-86
2023/02/19 04:58:03;;;;;;;0.70;0.50;;;;;;;7.07;100.00;100717.56;4992720;28;20577;-85
2023/02/19 05:00:30;;;;;;;0.73;0.50;;;;;;;7.05;100.00;100717.63;4994410;28;20204;-86
2023/02/19 05:02:57;;;;;;;1.07;0.50;;;;;;;7.01;100.00;100737.25;4994023;28;20610;-84
2023/02/19 05:05:23;;;;;;;0.60;0.50;;;;;;;6.97;100.00;100744.50;4994020;28;20223;-85
2023/02/19 05:07:49;;;;;;;0.47;0.40;;;;;;;6.91;99.97;100728.88;4996164;28;20219;-85
2023/02/19 05:10:17;;;;;;;0.70;0.50;;;;;;;6.86;100.00;100736.19;4994560;28;20226;-85
2023/02/19 05:12:44;;;;;;;0.47;0.40;;;;;;;6.84;100.00;100755.69;4994630;28;20215;-86
2023/02/19 05:15:10;;;;;;;0.77;0.70;;;;;;;6.79;100.00;100753.28;4988812;28;20231;-83
2023/02/19 05:17:37;;;;;;;0.60;0.50;;;;;;;6.76;100.00;100763.16;4995154;28;20196;-83
2023/02/19 05:20:04;;;;;;;0.53;0.50;;;;;;;6.72;100.00;100780.09;4995211;28;20219;-83
2023/02/19 05:22:30;;;;;;;1.37;0.60;;;;;;;6.69;100.00;100782.88;4988623;28;20211;-85
2023/02/19 05:24:57;;;;;;;0.90;0.77;;;;;;;6.63;100.00;100790.16;4983825;28;20228;-83
2023/02/19 05:27:25;;;;;;;0.40;0.40;;;;;;;6.59;100.00;100806.25;4997966;28;20216;-83
2023/02/19 05:29:51;;;;;;;0.40;0.40;;;;;;;6.56;100.00;100814.34;4984355;28;20653;-85
2023/02/19 05:32:17;;;;;;;0.97;0.40;;;;;;;6.49;100.00;100823.44;4991119;28;20218;-85
2023/02/19 05:34:44;;;;;;;0.50;0.50;;;;;;;6.47;100.00;100817.38;4995985;28;20853;-83
2023/02/19 05:37:10;;;;;;;0.43;0.43;;;;;;;6.44;100.00;100812.25;4990934;28;20617;-85
2023/02/19 05:39:37;;;;;;;0.60;0.40;;;;;;;6.41;100.00;100815.88;4993145;28;20211;-82
2023/02/19 05:42:03;;;;;;;0.57;0.40;;;;;;;6.41;100.00;100828.25;4994120;28;20219;-84
2023/02/19 05:44:31;;;;;;;0.80;0.40;;;;;;;6.36;100.00;100832.84;4992493;28;20219;-83
2023/02/19 05:46:58;;;;;;;0.50;0.40;;;;;;;6.31;100.00;100829.53;4996888;28;20206;-84
2023/02/19 05:49:24;;;;;;;0.60;0.60;;;;;;;6.25;100.00;100828.03;4997748;28;20230;-82
2023/02/19 05:51:51;;;;;;;0.70;0.30;;;;;;;6.17;100.00;100828.34;4994861;28;20211;-82
2023/02/19 05:54:17;;;;;;;0.50;0.50;;;;;;;6.12;100.00;100825.03;4985723;28;20222;-80
2023/02/19 05:56:44;;;;;;;0.40;0.40;;;;;;;6.08;100.00;100836.69;4996042;28;20223;-82
2023/02/19 05:59:17;;;;;;;0.87;0.33;;;;;;;6.07;100.00;100853.47;4994244;28;20207;-81
2023/02/19 06:01:45;;;;;;;0.40;0.40;;;;;;;6.04;100.00;100852.72;4993290;28;20215;-81
2023/02/19 06:04:13;;;;;;;0.40;0.37;;;;;;;5.96;100.00;100868.03;4994378;28;20215;-81
2023/02/19 06:06:40;;;;;;;1.17;0.47;;;;;;;5.88;100.00;100870.97;4992919;28;20227;-83
2023/02/19 06:09:08;;;;;;;0.70;0.50;;;;;;;5.82;100.00;100869.44;4990576;28;20236;-83
2023/02/19 06:11:35;;;;;;;0.70;0.60;;;;;;;5.78;100.00;100880.19;4991059;28;20200;-82
2023/02/19 06:14:02;;;;;;;1.20;0.93;;;;;;;5.73;100.00;100890.09;5002432;28;20203;-82
2023/02/19 06:16:31;;;;;;;0.70;0.67;;;;;;;5.69;100.00;100910.50;4995812;28;20219;-81
2023/02/19 06:18:58;;;;;;;0.87;0.60;;;;;;;5.68;100.00;100918.47;4993571;28;20294;-82
2023/02/19 06:21:25;;;;;;;1.60;0.67;;;;;;;5.62;100.00;100923.97;4994555;28;20291;-82
2023/02/19 06:23:52;;;;;;;0.87;0.53;;;;;;;5.57;100.00;100927.66;4982011;28;20211;-81
2023/02/19 06:26:21;;;;;;;0.60;0.50;;;;;;;5.53;100.00;100931.38;4984878;28;20247;-83
2023/02/19 06:28:48;;;;;;;0.40;0.40;;;;;;;5.49;100.00;100942.97;4985377;28;20223;-82
2023/02/19 06:31:16;;;;;;;1.13;0.53;;;;;;;5.45;100.00;100949.25;4999159;28;20676;-81
2023/02/19 06:33:43;;;;;;;2.87;0.70;;;;;;;5.41;100.00;100947.66;4991075;28;20653;-83
2023/02/19 06:36:14;;;;;;;1.13;0.87;;;;;;;5.40;100.00;100950.34;4992441;28;20238;-82
2023/02/19 06:38:41;;;;;;;1.27;0.90;;;;;;;5.38;100.00;100960.97;4989044;28;20207;-82
2023/02/19 06:41:09;;;;;;;1.00;0.90;;;;;;;5.36;100.00;100959.31;4992061;28;20214;-82
2023/02/19 06:43:35;;;;;;;0.77;0.60;;;;;;;5.32;100.00;100957.72;4991011;28;20212;-83
2023/02/19 06:46:05;;;;;;;2.20;0.80;;;;;;;5.30;100.00;100976.25;4995092;28;20223;-81
2023/02/19 06:48:32;;;;;;;1.37;0.93;;;;;;;5.25;100.00;100983.47;4991481;28;20230;-82
2023/02/19 06:50:59;;;;;;;1.73;1.10;;;;;;;5.21;100.00;100987.13;4993014;28;20208;-82
2023/02/19 06:53:27;;;;;;;0.50;0.50;;;;;;;5.16;99.87;100999.66;4985338;28;20206;-83
2023/02/19 06:55:58;;;;;;;2.93;0.50;;;;;;;5.06;98.99;101011.44;4991241;28;20220;-82
2023/02/19 06:58:25;;;;;;;0.90;0.53;;;;;;;4.95;99.00;101017.09;4990124;28;20672;-82
2023/02/19 07:00:52;;;;;;;1.60;0.63;;;;;;;4.88;99.32;101031.41;4990571;28;20204;-82
2023/02/19 07:03:19;;;;;;;1.87;0.60;;;;;;;4.79;98.75;101032.59;4997071;28;20214;-81
2023/02/19 07:05:45;;;;;;;1.20;0.50;;;;;;;4.71;98.75;101039.88;4985224;28;20223;-82
2023/02/19 07:08:12;;;;;;;0.40;0.30;;;;;;;4.63;98.03;101052.50;4993189;28;20234;-82
2023/02/19 07:10:39;;;;;;;1.10;0.40;;;;;;;4.53;98.03;101059.81;4991188;28;20207;-81
2023/02/19 07:13:06;;;;;;;1.07;0.50;;;;;;;4.45;98.04;101066.25;4989570;28;20310;-82
2023/02/19 07:15:32;;;;;;;1.20;0.50;;;;;;;4.41;98.28;101077.81;4996632;28;20246;-81
2023/02/19 07:17:59;;;;;;;1.80;0.63;;;;;;;4.36;98.79;101082.34;4992900;28;20223;-82
2023/02/19 07:20:25;;;;;;;1.70;0.90;;;;;;;4.33;98.72;101088.59;4976438;28;20220;-81
2023/02/19 07:22:52;;;;;;;0.80;0.77;;;;;;;4.29;98.60;101100.16;4991972;28;20196;-82
2023/02/19 07:25:18;;;;;;;1.93;0.73;;;;;;;4.27;99.13;101111.66;4991583;28;20235;-81
2023/02/19 07:27:46;;;;;;;1.10;0.63;;;;;;;4.24;99.42;101117.00;4992393;28;20203;-83
2023/02/19 07:30:13;;;;;;;0.53;0.53;;;;;;;4.23;99.63;101125.81;4991512;28;20231;-81
2023/02/19 07:32:41;;;;;;;0.47;0.47;;;;;;;4.22;100.00;101134.66;4994916;28;20211;-81
2023/02/19 07:35:08;;;;;;;0.83;0.60;;;;;;;4.24;99.97;101146.00;4986479;28;20231;-85
2023/02/19 07:37:34;;;;;;;0.87;0.67;;;;;;;4.25;100.00;101145.97;4989628;28;20665;-85
2023/02/19 07:40:01;;;;;;;4.27;2.97;;;;;;;4.26;100.00;101158.25;4991270;28;20222;-85
2023/02/19 07:42:28;;;;;;;2.00;0.80;;;;;;;4.27;100.00;101159.13;4992170;28;20211;-85
2023/02/19 07:44:56;;;;;;;1.67;1.00;;;;;;;4.27;100.00;101159.97;4992453;28;20236;-85
2023/02/19 07:47:22;;;;;;;0.90;0.90;;;;;;;4.29;100.00;101178.41;4992231;28;20223;-85
2023/02/19 07:49:49;;;;;;;0.70;0.70;;;;;;;4.26;100.00;101181.13;4991594;28;20231;-86
2023/02/19 07:52:15;;;;;;;0.83;0.80;;;;;;;4.27;100.00;101188.13;4991643;28;20699;-85
2023/02/19 07:54:42;;;;;;;1.50;0.63;;;;;;;4.24;100.00;101186.44;4992255;28;20761;-84
2023/02/19 07:57:08;;;;;;;1.47;1.07;;;;;;;4.24;100.00;101198.75;4991813;28;20211;-85
2023/02/19 07:59:34;;;;;;;1.70;0.93;;;;;;;4.25;100.00;101196.06;4991554;28;20212;-86
2023/02/19 08:04:47;;;;;;;2.93;1.13;;;;;;;4.27;100.00;101198.66;4992177;28;20882;-85
2023/02/19 08:07:13;;;;;;;1.37;1.27;;;;;;;4.28;100.00;101197.75;4992992;28;20212;-86
2023/02/19 08:09:40;;;;;;;2.50;1.20;;;;;;;4.29;100.00;101200.34;4992212;28;20234;-86
2023/02/19 08:14:52;;;;;;;3.37;1.77;;;;;;;4.34;100.00;101211.59;4992381;28;20297;-85
2023/02/19 08:17:20;;;;;;;1.77;1.60;;;;;;;4.33;100.00;101214.28;4992208;28;20218;-85
2023/02/19 08:19:47;;;;;;;4.77;2.50;;;;;;;4.34;100.00;101229.19;4992042;28;20211;-86
2023/02/19 08:22:15;;;;;;;4.40;2.87;;;;;;;4.36;100.00;101228.25;4991695;28;20212;-86
2023/02/19 08:24:41;;;;;;;6.77;3.93;;;;;;;4.37;100.00;101229.97;4991655;28;20267;-85
2023/02/19 08:27:08;;;;;;;4.77;2.80;;;;;;;4.41;100.00;101230.78;4992234;28;20243;-86
2023/02/19 08:29:34;;;;;;;6.10;2.70;;;;;;;4.43;100.00;101235.09;4992630;28;20239;-86
2023/02/19 08:32:01;;;;;;;8.37;4.37;;;;;;;4.45;100.00;101237.69;4992345;28;20235;-85
2023/02/19 08:34:28;;;;;;;5.30;2.10;;;;;;;4.49;100.00;101241.94;4995524;28;20222;-84
2023/02/19 08:36:55;;;;;;;3.87;2.00;;;;;;;4.53;100.00;101247.09;4995747;28;20211;-85
2023/02/19 08:39:21;;;;;;;2.10;1.47;;;;;;;4.60;100.00;101257.47;4995978;28;20207;-83
2023/02/19 08:41:48;;;;;;;1.40;1.23;;;;;;;4.64;100.00;101252.06;4995845;28;20979;-84
2023/02/19 08:44:14;;;;;;;1.30;1.20;;;;;;;4.68;100.00;101258.09;4996882;28;20211;-85
2023/02/19 08:46:44;;;;;;;1.63;1.10;;;;;;;4.72;100.00;101270.31;4990998;28;20715;-82
2023/02/19 08:49:10;;;;;;;2.57;1.50;;;;;;;4.77;100.00;101271.03;4994435;28;20613;-82
2023/02/19 08:51:38;;;;;;;2.20;1.17;;;;;;;4.80;100.00;101268.31;4995390;28;20211;-82
2023/02/19 08:54:04;;;;;;;1.63;1.20;;;;;;;4.83;100.00;101270.88;4984119;28;20211;-81
2023/02/19 08:56:31;;;;;;;2.17;1.60;;;;;;;4.85;100.00;101264.59;4991940;28;20238;-81
2023/02/19 08:58:57;;;;;;;2.87;1.40;;;;;;;4.88;100.00;101264.53;4995200;28;20211;-82
2023/02/19 09:01:24;;;;;;;2.87;1.87;;;;;;;4.91;100.00;101263.56;4989482;28;20204;-82
2023/02/19 09:03:50;;;;;;;3.43;1.40;;;;;;;4.94;100.00;101273.19;4991896;28;20242;-82
2023/02/19 09:06:19;;;;;;;3.43;1.67;;;;;;;5.00;100.00;101267.72;4990583;28;20698;-81
2023/02/19 09:08:47;;;;;;;3.63;1.30;;;;;;;5.03;100.00;101271.09;4992034;28;20218;-82
2023/02/19 09:11:14;;;;;;;3.23;2.17;;;;;;;5.08;100.00;101265.69;4989994;28;20200;-82
2023/02/19 09:13:40;;;;;;;3.83;2.03;;;;;;;5.14;100.00;101270.78;4989932;28;20204;-82
2023/02/19 09:16:07;;;;;;;3.27;2.10;;;;;;;5.18;100.00;101281.22;4993417;28;20223;-81
2023/02/19 09:18:34;;;;;;;3.53;2.27;;;;;;;5.23;100.00;101281.91;4979933;28;20233;-81
2023/02/19 09:21:01;;;;;;;4.23;2.10;;;;;;;5.28;100.00;101278.28;4995017;28;20660;-81
2023/02/19 09:23:28;;;;;;;3.90;2.57;;;;;;;5.34;100.00;101293.94;4987646;28;20215;-80
2023/02/19 09:26:02;;;;;;;2.13;1.87;;;;;;;5.41;100.00;101303.38;4988620;28;20235;-82
2023/02/19 09:28:28;;;;;;;4.27;2.23;;;;;;;5.50;100.00;101317.19;4993323;28;20680;-81
2023/02/19 09:30:54;;;;;;;1.87;1.40;;;;;;;5.56;100.00;101316.97;4986636;28;20216;-81
2023/02/19 09:33:21;;;;;;;2.73;1.77;;;;;;;5.64;100.00;101318.50;4993222;28;20288;-82
2023/02/19 09:35:47;;;;;;;1.47;1.10;;;;;;;5.67;100.00;101329.84;4993717;28;20282;-82
2023/02/19 09:38:14;;;;;;;3.20;1.13;;;;;;;5.70;99.27;101324.47;4974903;28;20200;-82
2023/02/19 09:40:40;;;;;;;2.63;1.37;;;;;;;5.71;99.13;101330.63;4974492;28;20208;-82
2023/02/19 09:43:12;;;;;;;3.30;1.40;;;;;;;5.72;98.52;101335.00;4987542;28;20649;-81
2023/02/19 09:45:40;;;;;;;1.70;1.27;;;;;;;5.74;97.76;101323.44;4993125;28;20624;-81
2023/02/19 09:48:15;;;;;;;1.10;1.00;;;;;;;5.81;97.79;101334.69;4989582;28;20204;-84
2023/02/19 09:50:45;;;;;;;2.60;1.30;;;;;;;5.93;97.05;101331.66;4982671;28;20268;-84
2023/02/19 09:53:16;;;;;;;3.73;1.50;;;;;;;6.02;96.65;101339.28;4987054;28;20199;-84
2023/02/19 09:55:44;;;;;;;3.40;1.30;;;;;;;6.01;96.25;101352.56;4984562;28;20224;-84
2023/02/19 09:58:23;;;;;;;3.63;1.20;;;;;;;6.02;95.19;101360.44;4987727;28;20204;-84
2023/02/19 10:00:51;;;;;;;1.10;0.87;;;;;;;6.04;94.30;101366.56;4988397;28;20289;-83
2023/02/19 10:03:24;;;;;;;1.60;1.07;;;;;;;6.04;94.04;101365.69;4990056;28;20250;-84
2023/02/19 10:05:50;;;;;;;1.83;1.10;;;;;;;6.04;93.30;101374.47;4997980;28;20218;-83
2023/02/19 10:08:20;;;;;;;1.40;1.10;;;;;;;6.04;93.16;101377.13;4995784;28;20203;-83
2023/02/19 10:10:47;;;;;;;1.90;1.10;;;;;;;6.07;93.09;101379.69;4990339;28;20255;-84
2023/02/19 10:13:19;;;;;;;1.87;1.10;;;;;;;6.08;92.38;101388.47;4992193;28;20211;-84
2023/02/19 10:15:49;;;;;;;1.57;1.20;;;;;;;6.11;92.38;101398.94;4988122;28;20234;-84
2023/02/19 10:18:18;;;;;;;3.80;1.37;;;;;;;6.15;92.41;101403.22;4988846;28;20200;-84
2023/02/19 10:20:45;;;;;;;4.53;2.07;;;;;;;6.20;91.83;101410.09;4993555;28;20200;-84
2023/02/19 10:23:15;;;;;;;2.47;1.80;;;;;;;6.27;91.93;101414.22;4984187;28;20296;-83
2023/02/19 10:25:46;;;;;;;2.93;1.70;;;;;;;6.31;91.53;101422.06;4992654;28;20235;-83
2023/02/19 10:28:17;;;;;;;3.13;2.40;;;;;;;6.33;90.93;101420.25;4979323;28;20212;-84
2023/02/19 10:30:45;;;;;;;2.57;1.20;;;;;;;6.35;90.95;101429.00;4986198;28;20573;-84
2023/02/19 10:33:13;;;;;;;2.93;1.27;;;;;;;6.38;90.32;101436.84;4988644;28;20215;-84
2023/02/19 10:35:53;;;;;;;3.10;1.40;;;;;;;6.40;90.46;101451.75;4993182;28;20283;-83
2023/02/19 10:38:24;;;;;;;2.10;1.30;;;;;;;6.41;89.68;101453.47;4987602;28;20227;-84
2023/02/19 10:40:59;;;;;;;2.60;1.33;;;;;;;6.43;89.33;101458.72;4984892;28;20200;-84
2023/02/19 10:43:32;;;;;;;1.40;1.30;;;;;;;6.44;89.19;101471.03;4991918;28;20207;-83
2023/02/19 10:46:01;;;;;;;2.87;1.90;;;;;;;6.48;88.75;101476.16;4995213;28;20234;-84
2023/02/19 10:48:30;;;;;;;2.97;2.00;;;;;;;6.54;88.50;101478.59;4987803;28;20201;-83
2023/02/19 10:51:03;;;;;;;4.97;2.50;;;;;;;6.58;87.76;101466.16;4986402;28;20227;-83
2023/02/19 10:53:41;;;;;;;3.90;2.40;;;;;;;6.59;87.95;101476.69;4990659;28;20219;-83
2023/02/19 10:56:10;;;;;;;4.10;2.37;;;;;;;6.59;87.92;101486.41;4992304;28;20247;-83
2023/02/19 10:58:39;;;;;;;4.67;2.30;;;;;;;6.62;86.68;101470.44;4991598;28;20203;-83
2023/02/19 11:01:19;;;;;;;4.87;3.10;;;;;;;6.66;87.22;101464.09;4989478;28;20334;-84
2023/02/19 11:03:46;;;;;;;7.30;3.03;;;;;;;6.67;86.14;101460.53;4989008;28;20273;-84
2023/02/19 11:06:15;;;;;;;7.67;4.00;;;;;;;6.69;86.43;101453.41;4992925;28;20252;-84
2023/02/19 11:08:51;;;;;;;7.17;4.20;;;;;;;6.73;85.74;101465.63;4995976;28;20203;-83
2023/02/19 11:11:28;;;;;;;6.47;3.93;;;;;;;6.75;85.49;101458.50;4992094;28;20314;-84
2023/02/19 11:13:57;;;;;;;5.80;3.57;;;;;;;6.77;85.16;101469.91;4997296;28;20199;-84
2023/02/19 11:16:24;;;;;;;7.27;4.43;;;;;;;6.77;85.26;101467.25;4986835;28;20224;-84
2023/02/19 11:18:56;;;;;;;7.40;3.70;;;;;;;6.78;84.42;101471.63;4991554;28;20207;-84
2023/02/19 11:21:27;;;;;;;6.70;4.10;;;;;;;6.78;84.27;101474.28;4985426;28;20204;-84
2023/02/19 11:23:55;;;;;;;5.93;3.37;;;;;;;6.81;83.89;101474.16;4992587;28;20200;-84
2023/02/19 11:26:25;;;;;;;8.20;4.37;;;;;;;6.83;83.48;101467.00;4986002;28;20228;-83
2023/02/19 11:28:57;;;;;;;5.30;3.67;;;;;;;6.85;82.50;101470.47;4984204;28;20211;-83
2023/02/19 11:31:26;;;;;;;6.50;3.57;;;;;;;6.88;82.26;101488.91;4994774;28;20219;-84
2023/02/19 11:33:57;;;;;;;8.23;3.73;;;;;;;6.87;82.38;101489.84;4994789;28;20214;-84
2023/02/19 11:36:27;;;;;;;5.33;3.30;;;;;;;6.86;81.44;101493.41;4989063;28;20230;-84
2023/02/19 11:38:55;;;;;;;4.63;2.63;;;;;;;6.87;81.50;101499.56;4993916;28;20199;-84
2023/02/19 11:41:38;;;;;;;4.03;2.10;;;;;;;6.87;80.56;101488.97;4993778;28;20207;-84
2023/02/19 11:44:24;;;;;;;5.17;2.33;;;;;;;6.90;80.61;101480.91;4991765;28;20200;-83
2023/02/19 11:47:03;;;;;;;2.50;1.77;;;;;;;6.97;80.51;101483.31;4988497;28;20227;-84
2023/02/19 11:49:43;;;;;;;4.83;1.90;;;;;;;7.02;80.30;101487.56;4988190;28;20220;-84
2023/02/19 11:52:24;;;;;;;1.70;1.50;;;;;;;7.07;80.02;101493.56;4993846;28;20195;-84
2023/02/19 11:54:55;;;;;;;3.00;1.60;;;;;;;7.08;78.52;101490.00;4995814;28;20301;-84
2023/02/19 11:57:35;;;;;;;5.70;1.70;;;;;;;7.07;78.81;101483.84;4985385;28;20228;-83
2023/02/19 12:00:18;;;;;;;2.77;1.60;;;;;;;7.06;78.31;101487.41;4989917;28;20727;-83
2023/02/19 12:03:06;;;;;;;4.30;2.10;;;;;;;7.08;77.49;101490.00;4986910;28;20215;-84